sensor_id;sensor_type;location;lat;lon;timestamp;temperature;humidity
60846;DHT22;47984;51.250;6.712;2022-10-04T00:00:52;10.50;59.20
60846;DHT22;47984;51.250;6.712;2022-10-04T00:03:27;10.50;59.20
60846;DHT22;47984;51.250;6.712;2022-10-04T00:06:11;10.50;59.20
60846;DHT22;47984;51.250;6.712;2022-10-04T00:09:06;10.50;59.20
60846;DHT22;47984;51.250;6.712;2022-10-04T00:11:43;10.50;59.30
60846;DHT22;47984;51.250;6.712;2022-10-04T00:14:17;10.50;59.30
60846;DHT22;47984;51.250;6.712;2022-10-04T00:16:50;10.50;59.30
60846;DHT22;47984;51.250;6.712;2022-10-04T00:22:26;10.50;59.30
60846;DHT22;47984;51.250;6.712;2022-10-04T00:28:13;10.50;59.30
60846;DHT22;47984;51.250;6.712;2022-10-04T00:44:18;10.60;59.40
60846;DHT22;47984;51.250;6.712;2022-10-04T00:47:00;10.60;59.40
60846;DHT22;47984;51.250;6.712;2022-10-04T00:49:38;10.60;59.40
60846;DHT22;47984;51.250;6.712;2022-10-04T00:52:14;10.60;59.40
60846;DHT22;47984;51.250;6.712;2022-10-04T00:54:59;10.60;59.40
60846;DHT22;47984;51.250;6.712;2022-10-04T00:57:33;10.60;59.40
60846;DHT22;47984;51.250;6.712;2022-10-04T01:02:50;10.60;59.40
60846;DHT22;47984;51.250;6.712;2022-10-04T01:08:35;10.60;59.40
60846;DHT22;47984;51.250;6.712;2022-10-04T01:11:09;10.60;59.40
60846;DHT22;47984;51.250;6.712;2022-10-04T01:13:44;10.60;59.40
60846;DHT22;47984;51.250;6.712;2022-10-04T01:16:18;10.60;59.40
60846;DHT22;47984;51.250;6.712;2022-10-04T01:18:54;10.60;59.40
60846;DHT22;47984;51.250;6.712;2022-10-04T01:21:42;10.60;59.40
60846;DHT22;47984;51.250;6.712;2022-10-04T01:24:35;10.60;59.40
60846;DHT22;47984;51.250;6.712;2022-10-04T01:30:10;10.60;59.40
60846;DHT22;47984;51.250;6.712;2022-10-04T01:32:41;10.60;59.40
60846;DHT22;47984;51.250;6.712;2022-10-04T01:35:14;10.60;59.40
60846;DHT22;47984;51.250;6.712;2022-10-04T01:37:41;10.60;59.40
60846;DHT22;47984;51.250;6.712;2022-10-04T01:40:12;10.60;59.30
60846;DHT22;47984;51.250;6.712;2022-10-04T01:42:48;10.60;59.40
60846;DHT22;47984;51.250;6.712;2022-10-04T01:45:39;10.60;59.40
60846;DHT22;47984;51.250;6.712;2022-10-04T01:48:16;10.60;59.40
60846;DHT22;47984;51.250;6.712;2022-10-04T01:53:35;10.60;59.40
60846;DHT22;47984;51.250;6.712;2022-10-04T01:56:18;10.60;59.40
60846;DHT22;47984;51.250;6.712;2022-10-04T01:58:54;10.50;59.40
60846;DHT22;47984;51.250;6.712;2022-10-04T02:04:31;10.50;59.40
60846;DHT22;47984;51.250;6.712;2022-10-04T02:07:10;10.60;59.40
60846;DHT22;47984;51.250;6.712;2022-10-04T02:09:42;10.50;59.40
60846;DHT22;47984;51.250;6.712;2022-10-04T02:12:15;10.50;59.40
60846;DHT22;47984;51.250;6.712;2022-10-04T02:14:50;10.50;59.40
60846;DHT22;47984;51.250;6.712;2022-10-04T02:17:24;10.50;59.40
60846;DHT22;47984;51.250;6.712;2022-10-04T02:19:56;10.50;59.40
60846;DHT22;47984;51.250;6.712;2022-10-04T02:22:27;10.50;59.40
60846;DHT22;47984;51.250;6.712;2022-10-04T02:24:56;10.50;59.40
60846;DHT22;47984;51.250;6.712;2022-10-04T02:27:26;10.50;59.40
60846;DHT22;47984;51.250;6.712;2022-10-04T02:30:03;10.50;59.40
60846;DHT22;47984;51.250;6.712;2022-10-04T02:32:52;10.50;59.40
60846;DHT22;47984;51.250;6.712;2022-10-04T02:35:33;10.50;59.40
60846;DHT22;47984;51.250;6.712;2022-10-04T02:38:14;10.50;59.40
60846;DHT22;47984;51.250;6.712;2022-10-04T02:41:05;10.50;59.40
60846;DHT22;47984;51.250;6.712;2022-10-04T02:44:00;10.50;59.40
60846;DHT22;47984;51.250;6.712;2022-10-04T02:52:49;10.50;59.50
60846;DHT22;47984;51.250;6.712;2022-10-04T02:55:29;10.50;59.50
60846;DHT22;47984;51.250;6.712;2022-10-04T02:58:00;10.50;59.50
60846;DHT22;47984;51.250;6.712;2022-10-04T03:00:28;10.50;59.50
60846;DHT22;47984;51.250;6.712;2022-10-04T03:06:06;10.50;59.50
60846;DHT22;47984;51.250;6.712;2022-10-04T03:11:10;10.50;59.60
60846;DHT22;47984;51.250;6.712;2022-10-04T03:13:55;10.50;59.60
60846;DHT22;47984;51.250;6.712;2022-10-04T03:16:37;10.50;59.60
60846;DHT22;47984;51.250;6.712;2022-10-04T03:19:13;10.50;59.60
60846;DHT22;47984;51.250;6.712;2022-10-04T03:21:46;10.50;59.60
60846;DHT22;47984;51.250;6.712;2022-10-04T03:24:20;10.50;59.60
60846;DHT22;47984;51.250;6.712;2022-10-04T03:26:54;10.50;59.70
60846;DHT22;47984;51.250;6.712;2022-10-04T03:29:45;10.50;59.60
60846;DHT22;47984;51.250;6.712;2022-10-04T03:32:23;10.50;59.60
60846;DHT22;47984;51.250;6.712;2022-10-04T03:34:57;10.50;59.60
60846;DHT22;47984;51.250;6.712;2022-10-04T03:37:37;10.50;59.60
60846;DHT22;47984;51.250;6.712;2022-10-04T03:40:08;10.50;59.60
60846;DHT22;47984;51.250;6.712;2022-10-04T03:42:36;10.50;59.60
60846;DHT22;47984;51.250;6.712;2022-10-04T03:45:06;10.50;59.60
60846;DHT22;47984;51.250;6.712;2022-10-04T03:47:43;10.50;59.60
60846;DHT22;47984;51.250;6.712;2022-10-04T03:52:56;10.50;59.60
60846;DHT22;47984;51.250;6.712;2022-10-04T03:55:35;10.50;59.60
60846;DHT22;47984;51.250;6.712;2022-10-04T03:58:13;10.50;59.60
60846;DHT22;47984;51.250;6.712;2022-10-04T04:00:47;10.50;59.60
60846;DHT22;47984;51.250;6.712;2022-10-04T04:03:33;10.50;59.60
60846;DHT22;47984;51.250;6.712;2022-10-04T04:06:39;10.50;59.60
60846;DHT22;47984;51.250;6.712;2022-10-04T04:09:21;10.50;59.60
60846;DHT22;47984;51.250;6.712;2022-10-04T04:12:17;10.50;59.60
60846;DHT22;47984;51.250;6.712;2022-10-04T04:14:49;10.50;59.60
60846;DHT22;47984;51.250;6.712;2022-10-04T04:19:56;10.50;59.50
60846;DHT22;47984;51.250;6.712;2022-10-04T04:22:32;10.50;59.60
60846;DHT22;47984;51.250;6.712;2022-10-04T04:25:10;10.50;59.60
60846;DHT22;47984;51.250;6.712;2022-10-04T04:27:44;10.50;59.60
60846;DHT22;47984;51.250;6.712;2022-10-04T04:30:15;10.50;59.60
60846;DHT22;47984;51.250;6.712;2022-10-04T04:32:45;10.50;59.60
60846;DHT22;47984;51.250;6.712;2022-10-04T04:35:31;10.50;59.60
60846;DHT22;47984;51.250;6.712;2022-10-04T04:40:40;10.40;59.60
60846;DHT22;47984;51.250;6.712;2022-10-04T04:43:08;10.40;59.60
60846;DHT22;47984;51.250;6.712;2022-10-04T04:45:40;10.40;59.60
60846;DHT22;47984;51.250;6.712;2022-10-04T04:48:07;10.40;59.60
60846;DHT22;47984;51.250;6.712;2022-10-04T04:50:40;10.40;59.60
60846;DHT22;47984;51.250;6.712;2022-10-04T04:53:19;10.40;59.60
60846;DHT22;47984;51.250;6.712;2022-10-04T04:55:56;10.40;59.60
60846;DHT22;47984;51.250;6.712;2022-10-04T04:58:40;10.40;59.60
60846;DHT22;47984;51.250;6.712;2022-10-04T05:01:25;10.40;59.60
60846;DHT22;47984;51.250;6.712;2022-10-04T05:04:02;10.40;59.60
60846;DHT22;47984;51.250;6.712;2022-10-04T05:06:32;10.40;59.60
60846;DHT22;47984;51.250;6.712;2022-10-04T05:09:00;10.40;59.60
60846;DHT22;47984;51.250;6.712;2022-10-04T05:11:30;10.40;59.60
60846;DHT22;47984;51.250;6.712;2022-10-04T05:14:00;10.40;59.60
60846;DHT22;47984;51.250;6.712;2022-10-04T05:16:37;10.40;59.70
60846;DHT22;47984;51.250;6.712;2022-10-04T05:22:02;10.40;59.60
60846;DHT22;47984;51.250;6.712;2022-10-04T05:24:44;10.40;59.60
60846;DHT22;47984;51.250;6.712;2022-10-04T05:29:56;10.30;59.60
60846;DHT22;47984;51.250;6.712;2022-10-04T05:32:53;10.30;59.60
60846;DHT22;47984;51.250;6.712;2022-10-04T05:35:21;10.30;59.60
60846;DHT22;47984;51.250;6.712;2022-10-04T05:40:46;10.30;59.60
60846;DHT22;47984;51.250;6.712;2022-10-04T05:48:45;10.30;59.60
60846;DHT22;47984;51.250;6.712;2022-10-04T05:51:17;10.30;59.60
60846;DHT22;47984;51.250;6.712;2022-10-04T05:53:45;10.30;59.60
60846;DHT22;47984;51.250;6.712;2022-10-04T06:04:54;10.30;59.60
60846;DHT22;47984;51.250;6.712;2022-10-04T06:07:28;10.20;59.60
60846;DHT22;47984;51.250;6.712;2022-10-04T06:21:23;10.20;59.70
60846;DHT22;47984;51.250;6.712;2022-10-04T06:23:58;10.20;59.70
60846;DHT22;47984;51.250;6.712;2022-10-04T06:26:58;10.20;59.70
60846;DHT22;47984;51.250;6.712;2022-10-04T06:29:46;10.20;59.70
60846;DHT22;47984;51.250;6.712;2022-10-04T06:32:22;10.20;59.70
60846;DHT22;47984;51.250;6.712;2022-10-04T06:49:08;10.20;59.80
60846;DHT22;47984;51.250;6.712;2022-10-04T07:00:25;10.20;59.90
60846;DHT22;47984;51.250;6.712;2022-10-04T07:03:03;10.20;59.90
60846;DHT22;47984;51.250;6.712;2022-10-04T07:05:44;10.20;59.90
60846;DHT22;47984;51.250;6.712;2022-10-04T07:11:18;10.20;59.90
60846;DHT22;47984;51.250;6.712;2022-10-04T07:24:37;10.30;60.00
60846;DHT22;47984;51.250;6.712;2022-10-04T07:27:07;10.30;60.00
60846;DHT22;47984;51.250;6.712;2022-10-04T07:29:39;10.30;60.00
60846;DHT22;47984;51.250;6.712;2022-10-04T07:32:12;10.30;60.00
60846;DHT22;47984;51.250;6.712;2022-10-04T07:40:56;10.40;60.00
60846;DHT22;47984;51.250;6.712;2022-10-04T07:43:34;10.40;60.00
60846;DHT22;47984;51.250;6.712;2022-10-04T07:46:13;10.40;60.00
60846;DHT22;47984;51.250;6.712;2022-10-04T07:48:47;10.40;60.00
60846;DHT22;47984;51.250;6.712;2022-10-04T07:54:01;10.40;60.00
60846;DHT22;47984;51.250;6.712;2022-10-04T07:56:37;10.50;60.00
60846;DHT22;47984;51.250;6.712;2022-10-04T08:10:38;10.50;60.00
60846;DHT22;47984;51.250;6.712;2022-10-04T08:25:10;10.60;60.10
60846;DHT22;47984;51.250;6.712;2022-10-04T08:28:48;10.60;60.10
60846;DHT22;47984;51.250;6.712;2022-10-04T08:43:02;10.70;60.40
60846;DHT22;47984;51.250;6.712;2022-10-04T08:48:18;10.80;60.40
60846;DHT22;47984;51.250;6.712;2022-10-04T08:51:34;10.80;60.50
60846;DHT22;47984;51.250;6.712;2022-10-04T08:56:59;10.90;60.50
60846;DHT22;47984;51.250;6.712;2022-10-04T09:08:29;11.10;60.60
60846;DHT22;47984;51.250;6.712;2022-10-04T09:13:47;11.20;60.70
60846;DHT22;47984;51.250;6.712;2022-10-04T09:16:46;11.20;61.50
60846;DHT22;47984;51.250;6.712;2022-10-04T09:22:15;11.30;60.60
60846;DHT22;47984;51.250;6.712;2022-10-04T09:24:48;11.30;60.60
60846;DHT22;47984;51.250;6.712;2022-10-04T09:27:43;11.40;60.60
60846;DHT22;47984;51.250;6.712;2022-10-04T09:36:10;11.60;60.60
60846;DHT22;47984;51.250;6.712;2022-10-04T09:39:10;11.60;60.60
60846;DHT22;47984;51.250;6.712;2022-10-04T09:44:51;11.80;60.60
60846;DHT22;47984;51.250;6.712;2022-10-04T09:47:34;11.80;60.60
60846;DHT22;47984;51.250;6.712;2022-10-04T09:50:32;11.90;60.60
60846;DHT22;47984;51.250;6.712;2022-10-04T09:53:33;11.90;60.60
60846;DHT22;47984;51.250;6.712;2022-10-04T10:15:57;12.40;60.40
60846;DHT22;47984;51.250;6.712;2022-10-04T10:21:49;12.50;60.40
60846;DHT22;47984;51.250;6.712;2022-10-04T10:24:31;12.50;60.30
60846;DHT22;47984;51.250;6.712;2022-10-04T10:41:40;12.80;60.20
60846;DHT22;47984;51.250;6.712;2022-10-04T10:59:29;13.10;60.00
60846;DHT22;47984;51.250;6.712;2022-10-04T11:02:29;13.20;60.00
60846;DHT22;47984;51.250;6.712;2022-10-04T11:37:14;13.70;59.50
60846;DHT22;47984;51.250;6.712;2022-10-04T11:40:05;13.80;59.60
60846;DHT22;47984;51.250;6.712;2022-10-04T11:45:55;13.80;59.50
60846;DHT22;47984;51.250;6.712;2022-10-04T11:54:10;14.00;59.40
60846;DHT22;47984;51.250;6.712;2022-10-04T11:57:54;13.90;59.40
60846;DHT22;47984;51.250;6.712;2022-10-04T12:02:45;14.10;59.30
60846;DHT22;47984;51.250;6.712;2022-10-04T12:16:40;14.20;59.20
60846;DHT22;47984;51.250;6.712;2022-10-04T12:28:44;14.30;59.10
60846;DHT22;47984;51.250;6.712;2022-10-04T12:42:30;14.50;59.10
60846;DHT22;47984;51.250;6.712;2022-10-04T12:48:49;14.50;59.00
60846;DHT22;47984;51.250;6.712;2022-10-04T12:53:48;14.60;58.90
60846;DHT22;47984;51.250;6.712;2022-10-04T13:24:12;14.90;58.60
60846;DHT22;47984;51.250;6.712;2022-10-04T13:27:02;15.00;58.60
60846;DHT22;47984;51.250;6.712;2022-10-04T13:29:40;15.00;58.60
60846;DHT22;47984;51.250;6.712;2022-10-04T13:32:21;15.00;58.50
60846;DHT22;47984;51.250;6.712;2022-10-04T13:35:02;15.10;58.50
60846;DHT22;47984;51.250;6.712;2022-10-04T13:54:42;15.30;58.40
60846;DHT22;47984;51.250;6.712;2022-10-04T13:57:49;15.30;58.30
60846;DHT22;47984;51.250;6.712;2022-10-04T14:03:22;15.30;58.20
60846;DHT22;47984;51.250;6.712;2022-10-04T14:17:23;15.40;58.10
60846;DHT22;47984;51.250;6.712;2022-10-04T14:28:44;15.50;57.90
60846;DHT22;47984;51.250;6.712;2022-10-04T14:42:59;15.50;57.70
60846;DHT22;47984;51.250;6.712;2022-10-04T14:45:43;15.50;57.70
60846;DHT22;47984;51.250;6.712;2022-10-04T14:48:39;15.50;57.60
60846;DHT22;47984;51.250;6.712;2022-10-04T14:54:03;15.50;57.60
60846;DHT22;47984;51.250;6.712;2022-10-04T15:02:12;15.60;57.60
60846;DHT22;47984;51.250;6.712;2022-10-04T15:11:31;15.60;57.70
60846;DHT22;47984;51.250;6.712;2022-10-04T15:14:00;15.60;57.70
60846;DHT22;47984;51.250;6.712;2022-10-04T15:19:22;15.70;57.80
60846;DHT22;47984;51.250;6.712;2022-10-04T15:22:14;15.70;57.80
60846;DHT22;47984;51.250;6.712;2022-10-04T15:27:34;15.70;57.70
60846;DHT22;47984;51.250;6.712;2022-10-04T15:35:20;15.70;57.60
60846;DHT22;47984;51.250;6.712;2022-10-04T15:49:58;15.80;57.60
60846;DHT22;47984;51.250;6.712;2022-10-04T15:58:12;15.80;57.60
60846;DHT22;47984;51.250;6.712;2022-10-04T16:11:55;15.80;57.50
60846;DHT22;47984;51.250;6.712;2022-10-04T16:14:37;15.80;57.50
60846;DHT22;47984;51.250;6.712;2022-10-04T16:25:54;15.80;57.50
60846;DHT22;47984;51.250;6.712;2022-10-04T16:53:55;15.70;57.50
60846;DHT22;47984;51.250;6.712;2022-10-04T17:04:49;15.60;57.40
60846;DHT22;47984;51.250;6.712;2022-10-04T17:13:11;15.50;57.30
60846;DHT22;47984;51.250;6.712;2022-10-04T17:24:55;15.30;57.90
60846;DHT22;47984;51.250;6.712;2022-10-04T17:40:47;15.10;57.20
60846;DHT22;47984;51.250;6.712;2022-10-04T17:43:33;15.00;57.10
60846;DHT22;47984;51.250;6.712;2022-10-04T17:49:17;14.90;57.10
60846;DHT22;47984;51.250;6.712;2022-10-04T17:52:17;14.90;57.10
60846;DHT22;47984;51.250;6.712;2022-10-04T17:55:24;14.80;57.10
60846;DHT22;47984;51.250;6.712;2022-10-04T17:57:57;14.80;57.20
60846;DHT22;47984;51.250;6.712;2022-10-04T18:00:45;14.70;57.10
60846;DHT22;47984;51.250;6.712;2022-10-04T18:03:37;14.70;57.10
60846;DHT22;47984;51.250;6.712;2022-10-04T18:09:04;14.60;57.10
60846;DHT22;47984;51.250;6.712;2022-10-04T18:11:52;14.60;57.20
60846;DHT22;47984;51.250;6.712;2022-10-04T18:16:57;14.50;57.10
60846;DHT22;47984;51.250;6.712;2022-10-04T18:22:18;14.40;57.10
60846;DHT22;47984;51.250;6.712;2022-10-04T18:24:47;14.40;57.20
60846;DHT22;47984;51.250;6.712;2022-10-04T18:27:29;14.30;57.20
60846;DHT22;47984;51.250;6.712;2022-10-04T18:32:50;14.30;57.20
60846;DHT22;47984;51.250;6.712;2022-10-04T18:37:53;14.20;57.20
60846;DHT22;47984;51.250;6.712;2022-10-04T18:40:42;14.10;57.20
60846;DHT22;47984;51.250;6.712;2022-10-04T18:45:58;14.10;57.30
60846;DHT22;47984;51.250;6.712;2022-10-04T18:48:52;14.00;57.30
60846;DHT22;47984;51.250;6.712;2022-10-04T18:51:35;14.00;57.30
60846;DHT22;47984;51.250;6.712;2022-10-04T19:02:47;13.90;57.40
60846;DHT22;47984;51.250;6.712;2022-10-04T19:05:33;13.90;57.40
60846;DHT22;47984;51.250;6.712;2022-10-04T19:08:19;13.80;57.40
60846;DHT22;47984;51.250;6.712;2022-10-04T19:11:02;13.80;57.40
60846;DHT22;47984;51.250;6.712;2022-10-04T19:13:41;13.70;57.40
60846;DHT22;47984;51.250;6.712;2022-10-04T19:21:49;13.70;57.50
60846;DHT22;47984;51.250;6.712;2022-10-04T19:40:41;13.50;57.60
60846;DHT22;47984;51.250;6.712;2022-10-04T19:43:17;13.40;57.50
60846;DHT22;47984;51.250;6.712;2022-10-04T19:48:52;13.40;57.60
60846;DHT22;47984;51.250;6.712;2022-10-04T19:54:11;13.40;57.60
60846;DHT22;47984;51.250;6.712;2022-10-04T19:56:44;13.30;57.50
60846;DHT22;47984;51.250;6.712;2022-10-04T19:59:16;13.30;57.50
60846;DHT22;47984;51.250;6.712;2022-10-04T20:01:45;13.30;57.60
60846;DHT22;47984;51.250;6.712;2022-10-04T20:04:13;13.20;57.50
60846;DHT22;47984;51.250;6.712;2022-10-04T20:07:03;13.30;57.60
60846;DHT22;47984;51.250;6.712;2022-10-04T20:15:45;13.20;57.50
60846;DHT22;47984;51.250;6.712;2022-10-04T20:31:08;13.10;57.60
60846;DHT22;47984;51.250;6.712;2022-10-04T20:37:03;13.00;57.50
60846;DHT22;47984;51.250;6.712;2022-10-04T20:42:31;12.90;57.50
60846;DHT22;47984;51.250;6.712;2022-10-04T20:47:55;12.80;57.50
60846;DHT22;47984;51.250;6.712;2022-10-04T20:50:45;12.90;57.50
60846;DHT22;47984;51.250;6.712;2022-10-04T20:53:28;12.80;57.50
60846;DHT22;47984;51.250;6.712;2022-10-04T20:56:21;12.80;57.50
60846;DHT22;47984;51.250;6.712;2022-10-04T20:59:04;12.80;57.50
60846;DHT22;47984;51.250;6.712;2022-10-04T21:01:39;12.70;57.50
60846;DHT22;47984;51.250;6.712;2022-10-04T21:04:27;12.70;57.50
60846;DHT22;47984;51.250;6.712;2022-10-04T21:07:30;12.70;57.50
60846;DHT22;47984;51.250;6.712;2022-10-04T21:10:05;12.70;57.60
60846;DHT22;47984;51.250;6.712;2022-10-04T21:12:46;12.70;57.60
60846;DHT22;47984;51.250;6.712;2022-10-04T21:15:19;12.60;57.60
60846;DHT22;47984;51.250;6.712;2022-10-04T21:18:05;12.60;57.60
60846;DHT22;47984;51.250;6.712;2022-10-04T21:20:49;12.60;57.60
60846;DHT22;47984;51.250;6.712;2022-10-04T21:23:28;12.60;57.60
60846;DHT22;47984;51.250;6.712;2022-10-04T21:26:21;12.50;57.60
60846;DHT22;47984;51.250;6.712;2022-10-04T21:28:58;12.50;57.60
60846;DHT22;47984;51.250;6.712;2022-10-04T21:31:28;12.50;58.30
60846;DHT22;47984;51.250;6.712;2022-10-04T21:33:58;12.50;57.70
60846;DHT22;47984;51.250;6.712;2022-10-04T21:36:28;12.50;57.70
60846;DHT22;47984;51.250;6.712;2022-10-04T21:38:55;12.50;57.70
60846;DHT22;47984;51.250;6.712;2022-10-04T21:41:23;12.40;57.70
60846;DHT22;47984;51.250;6.712;2022-10-04T21:43:50;12.40;57.70
60846;DHT22;47984;51.250;6.712;2022-10-04T21:46:17;12.40;57.70
60846;DHT22;47984;51.250;6.712;2022-10-04T21:48:48;12.40;57.70
60846;DHT22;47984;51.250;6.712;2022-10-04T21:51:15;12.40;57.80
60846;DHT22;47984;51.250;6.712;2022-10-04T21:53:44;12.40;57.80
60846;DHT22;47984;51.250;6.712;2022-10-04T21:56:16;12.40;57.80
60846;DHT22;47984;51.250;6.712;2022-10-04T21:58:43;12.40;57.80
60846;DHT22;47984;51.250;6.712;2022-10-04T22:01:24;12.40;57.90
60846;DHT22;47984;51.250;6.712;2022-10-04T22:03:51;12.30;57.80
60846;DHT22;47984;51.250;6.712;2022-10-04T22:06:22;12.30;57.90
60846;DHT22;47984;51.250;6.712;2022-10-04T22:08:51;12.30;57.90
60846;DHT22;47984;51.250;6.712;2022-10-04T22:11:21;12.30;57.90
60846;DHT22;47984;51.250;6.712;2022-10-04T22:13:50;12.30;57.90
60846;DHT22;47984;51.250;6.712;2022-10-04T22:16:17;12.30;57.90
60846;DHT22;47984;51.250;6.712;2022-10-04T22:18:48;12.30;57.90
60846;DHT22;47984;51.250;6.712;2022-10-04T22:21:19;12.30;57.90
60846;DHT22;47984;51.250;6.712;2022-10-04T22:23:50;12.30;58.00
60846;DHT22;47984;51.250;6.712;2022-10-04T22:26:20;12.30;58.00
60846;DHT22;47984;51.250;6.712;2022-10-04T22:28:55;12.30;58.00
60846;DHT22;47984;51.250;6.712;2022-10-04T22:31:26;12.30;58.00
60846;DHT22;47984;51.250;6.712;2022-10-04T22:33:55;12.30;58.00
60846;DHT22;47984;51.250;6.712;2022-10-04T22:36:24;12.30;58.00
60846;DHT22;47984;51.250;6.712;2022-10-04T22:41:38;12.30;58.10
60846;DHT22;47984;51.250;6.712;2022-10-04T22:44:13;12.30;58.10
60846;DHT22;47984;51.250;6.712;2022-10-04T22:46:44;12.30;58.00
60846;DHT22;47984;51.250;6.712;2022-10-04T22:49:25;12.20;58.00
60846;DHT22;47984;51.250;6.712;2022-10-04T22:51:57;12.20;58.00
60846;DHT22;47984;51.250;6.712;2022-10-04T22:54:32;12.20;58.00
60846;DHT22;47984;51.250;6.712;2022-10-04T22:57:01;12.20;58.00
60846;DHT22;47984;51.250;6.712;2022-10-04T22:59:33;12.20;58.00
60846;DHT22;47984;51.250;6.712;2022-10-04T23:02:06;12.20;58.00
60846;DHT22;47984;51.250;6.712;2022-10-04T23:04:57;12.20;58.00
60846;DHT22;47984;51.250;6.712;2022-10-04T23:07:47;12.20;58.00
60846;DHT22;47984;51.250;6.712;2022-10-04T23:10:17;12.20;58.00
60846;DHT22;47984;51.250;6.712;2022-10-04T23:12:53;12.20;58.00
60846;DHT22;47984;51.250;6.712;2022-10-04T23:15:21;12.20;58.00
60846;DHT22;47984;51.250;6.712;2022-10-04T23:17:52;12.20;58.10
60846;DHT22;47984;51.250;6.712;2022-10-04T23:20:24;12.10;58.00
60846;DHT22;47984;51.250;6.712;2022-10-04T23:22:58;12.10;58.00
60846;DHT22;47984;51.250;6.712;2022-10-04T23:25:26;12.20;58.10
60846;DHT22;47984;51.250;6.712;2022-10-04T23:27:57;12.10;58.00
60846;DHT22;47984;51.250;6.712;2022-10-04T23:30:33;12.10;58.10
60846;DHT22;47984;51.250;6.712;2022-10-04T23:33:17;12.10;58.10
60846;DHT22;47984;51.250;6.712;2022-10-04T23:36:00;12.10;58.10
60846;DHT22;47984;51.250;6.712;2022-10-04T23:38:28;12.10;58.10
60846;DHT22;47984;51.250;6.712;2022-10-04T23:41:18;12.10;58.10
60846;DHT22;47984;51.250;6.712;2022-10-04T23:43:47;12.10;58.20
60846;DHT22;47984;51.250;6.712;2022-10-04T23:46:20;12.10;58.20
60846;DHT22;47984;51.250;6.712;2022-10-04T23:48:54;12.10;58.20
60846;DHT22;47984;51.250;6.712;2022-10-04T23:51:21;12.10;58.20
60846;DHT22;47984;51.250;6.712;2022-10-04T23:53:52;12.10;58.20
60846;DHT22;47984;51.250;6.712;2022-10-04T23:56:22;12.10;58.20
60846;DHT22;47984;51.250;6.712;2022-10-04T23:59:01;12.10;58.20
